Time;durP1;ratioP1;P1;durP2;ratioP2;P2;SDS_P1;SDS_P2;PMS_P1;PMS_P2;Temp;Humidity;BMP_temperature;BMP_pressure;BME280_temperature;BME280_humidity;BME280_pressure;Samples;Min_cycle;Max_cycle;Signal;HPM_P1;HPM_P2
2024/01/07 00:01:26;;;;;;;3.90;2.00;;;6.00;99.90;;;;;;5017008;28;20040;-74
2024/01/07 00:03:52;;;;;;;3.25;1.70;;;6.00;99.90;;;;;;5017859;28;20034;-74
2024/01/07 00:06:18;;;;;;;4.68;1.70;;;5.90;99.90;;;;;;5017847;28;20030;-74
2024/01/07 00:08:43;;;;;;;2.28;1.75;;;5.90;99.90;;;;;;5017751;28;20050;-73
2024/01/07 00:11:09;;;;;;;2.95;1.58;;;5.90;99.90;;;;;;5017589;28;20084;-74
2024/01/07 00:13:35;;;;;;;3.72;1.70;;;5.70;99.90;;;;;;5016981;28;20033;-74
2024/01/07 00:16:01;;;;;;;5.80;2.10;;;5.80;99.90;;;;;;5017435;28;20029;-74
2024/01/07 00:18:27;;;;;;;3.25;1.80;;;5.90;99.90;;;;;;5017834;28;20018;-74
2024/01/07 00:20:53;;;;;;;1.67;1.23;;;5.70;99.90;;;;;;5017475;28;20028;-74
2024/01/07 00:23:20;;;;;;;3.80;2.00;;;5.70;99.90;;;;;;5016685;28;20025;-74
2024/01/07 00:25:46;;;;;;;4.32;2.15;;;5.60;99.90;;;;;;5016509;28;20068;-74
2024/01/07 00:28:12;;;;;;;3.67;1.92;;;5.70;99.90;;;;;;5016933;28;20032;-74
2024/01/07 00:30:38;;;;;;;5.40;2.10;;;5.60;99.90;;;;;;5016764;28;20113;-74
2024/01/07 00:33:03;;;;;;;3.28;1.70;;;5.70;99.90;;;;;;5017678;28;20026;-74
2024/01/07 00:35:29;;;;;;;4.38;1.90;;;5.70;99.90;;;;;;5016859;28;20083;-74
2024/01/07 00:37:56;;;;;;;4.15;2.10;;;5.70;99.90;;;;;;5016695;28;20022;-74
2024/01/07 00:40:22;;;;;;;3.70;1.85;;;5.70;99.90;;;;;;5016841;28;20022;-74
2024/01/07 00:42:48;;;;;;;3.70;2.15;;;5.60;99.90;;;;;;5016487;28;20068;-74
2024/01/07 00:45:13;;;;;;;7.80;1.65;;;5.60;99.90;;;;;;5017298;28;20029;-74
2024/01/07 00:47:39;;;;;;;3.70;1.90;;;5.70;99.90;;;;;;5016807;28;20061;-74
2024/01/07 00:50:05;;;;;;;3.90;2.10;;;5.60;99.90;;;;;;5017172;28;20037;-73
2024/01/07 00:52:30;;;;;;;4.15;2.20;;;5.60;99.90;;;;;;5016471;28;20029;-74
2024/01/07 00:54:56;;;;;;;2.83;1.60;;;5.70;99.90;;;;;;5017416;28;20024;-74
2024/01/07 00:57:22;;;;;;;3.65;2.38;;;5.70;99.90;;;;;;5017144;28;20018;-74
2024/01/07 00:59:47;;;;;;;2.78;2.05;;;5.70;99.90;;;;;;5016886;28;20026;-74
2024/01/07 01:02:13;;;;;;;3.83;1.80;;;5.50;99.90;;;;;;5017071;28;20109;-74
2024/01/07 01:04:40;;;;;;;7.40;1.73;;;5.60;99.90;;;;;;5017079;28;20029;-74
2024/01/07 01:07:07;;;;;;;4.32;1.90;;;5.70;99.90;;;;;;5017173;28;20084;-74
2024/01/07 01:09:33;;;;;;;2.85;1.60;;;5.70;99.90;;;;;;5017281;28;20030;-74
2024/01/07 01:11:58;;;;;;;5.28;1.90;;;5.70;99.90;;;;;;5016208;28;20044;-74
2024/01/07 01:14:24;;;;;;;3.80;2.08;;;5.80;99.90;;;;;;5016110;28;20026;-74
2024/01/07 01:16:49;;;;;;;4.30;1.55;;;5.70;99.90;;;;;;5016879;28;20026;-74
2024/01/07 01:19:15;;;;;;;7.18;2.17;;;5.80;99.90;;;;;;5016111;28;20034;-74
2024/01/07 01:21:40;;;;;;;4.50;1.77;;;5.80;99.90;;;;;;5017029;28;20026;-74
2024/01/07 01:24:06;;;;;;;2.90;1.27;;;5.80;99.90;;;;;;5017126;28;20102;-74
2024/01/07 01:26:31;;;;;;;3.10;1.60;;;5.70;99.90;;;;;;5017208;28;20030;-74
2024/01/07 01:28:57;;;;;;;3.53;1.88;;;5.80;99.90;;;;;;5017710;28;20026;-65
2024/01/07 01:31:22;;;;;;;3.65;1.88;;;5.80;99.90;;;;;;5017719;28;20029;-65
2024/01/07 01:33:48;;;;;;;3.15;1.83;;;5.80;99.90;;;;;;5016914;28;20080;-65
2024/01/07 01:36:13;;;;;;;3.25;1.70;;;5.80;99.90;;;;;;5016849;28;20022;-65
2024/01/07 01:38:39;;;;;;;2.80;1.35;;;5.80;99.90;;;;;;5016769;28;20061;-65
2024/01/07 01:41:04;;;;;;;3.28;1.40;;;5.70;99.90;;;;;;5017884;28;20072;-65
2024/01/07 01:43:30;;;;;;;3.38;1.45;;;5.70;99.90;;;;;;5020437;28;20029;-65
2024/01/07 01:45:56;;;;;;;3.65;1.73;;;5.70;99.90;;;;;;5020925;28;20018;-65
2024/01/07 01:48:26;;;;;;;3.22;1.77;;;5.60;99.90;;;;;;5019355;28;20034;-66
2024/01/07 01:50:54;;;;;;;3.00;1.60;;;5.60;99.90;;;;;;5020176;28;20116;-65
2024/01/07 01:53:19;;;;;;;3.38;1.73;;;5.60;99.90;;;;;;5019319;28;20014;-65
2024/01/07 01:55:45;;;;;;;3.42;1.70;;;5.60;99.90;;;;;;5019877;28;20025;-65
2024/01/07 01:58:13;;;;;;;4.43;2.00;;;5.70;99.90;;;;;;5020047;28;20029;-65
2024/01/07 02:00:40;;;;;;;5.85;2.00;;;5.70;99.90;;;;;;5020179;28;20025;-65
2024/01/07 02:03:05;;;;;;;3.35;1.73;;;5.70;99.90;;;;;;5019890;28;20100;-65
2024/01/07 02:05:31;;;;;;;3.95;2.08;;;5.80;99.90;;;;;;5019244;28;20081;-65
2024/01/07 02:07:58;;;;;;;8.30;1.80;;;5.80;99.90;;;;;;5019416;28;20094;-65
2024/01/07 02:10:24;;;;;;;3.90;1.92;;;5.70;99.90;;;;;;5019474;28;20104;-65
2024/01/07 02:12:49;;;;;;;3.67;1.92;;;5.70;99.90;;;;;;5019750;28;20160;-65
2024/01/07 02:15:15;;;;;;;5.45;2.40;;;5.80;99.90;;;;;;5019543;28;20024;-65
2024/01/07 02:17:41;;;;;;;4.10;1.77;;;5.80;99.90;;;;;;5019813;28;20029;-65
2024/01/07 02:20:07;;;;;;;3.60;1.63;;;5.90;99.90;;;;;;5020386;28;20029;-65
2024/01/07 02:22:32;;;;;;;5.15;2.42;;;5.90;99.90;;;;;;5019796;28;20022;-65
2024/01/07 02:24:58;;;;;;;3.92;1.80;;;5.80;99.90;;;;;;5018824;28;20068;-65
2024/01/07 02:27:23;;;;;;;4.20;1.83;;;5.80;99.90;;;;;;5018888;28;20076;-65
2024/01/07 02:29:49;;;;;;;4.63;2.60;;;5.90;99.90;;;;;;5019614;28;20026;-65
2024/01/07 02:32:15;;;;;;;4.47;2.25;;;6.00;99.90;;;;;;5019746;28;20026;-65
2024/01/07 02:34:40;;;;;;;5.72;2.60;;;5.90;99.90;;;;;;5019968;28;20026;-65
2024/01/07 02:37:06;;;;;;;4.65;2.20;;;5.70;99.90;;;;;;5018810;28;20029;-65
2024/01/07 02:39:31;;;;;;;3.53;2.25;;;5.80;99.90;;;;;;5019520;28;20026;-65
2024/01/07 02:41:57;;;;;;;4.95;2.33;;;5.80;99.90;;;;;;5019624;28;20026;-65
2024/01/07 02:44:22;;;;;;;4.00;2.33;;;5.80;99.90;;;;;;5019486;28;20030;-65
2024/01/07 02:46:48;;;;;;;8.90;2.75;;;5.80;99.90;;;;;;5018971;28;20026;-65
2024/01/07 02:49:14;;;;;;;5.00;2.20;;;5.70;99.90;;;;;;5019257;28;20025;-65
2024/01/07 02:51:39;;;;;;;7.30;3.15;;;5.90;99.90;;;;;;5018195;28;20057;-65
2024/01/07 02:54:05;;;;;;;11.98;4.03;;;5.90;99.90;;;;;;5019108;28;20026;-65
2024/01/07 02:56:30;;;;;;;7.55;3.20;;;5.80;99.90;;;;;;5019391;28;20022;-65
2024/01/07 02:58:56;;;;;;;10.02;3.95;;;5.80;99.90;;;;;;5018459;28;20029;-65
2024/01/07 03:01:23;;;;;;;8.07;3.55;;;5.70;99.90;;;;;;5018889;28;20044;-66
2024/01/07 03:03:48;;;;;;;11.38;3.30;;;5.80;99.90;;;;;;5018952;28;20065;-65
2024/01/07 03:06:14;;;;;;;6.90;2.80;;;5.70;99.90;;;;;;5018412;28;20033;-65
2024/01/07 03:08:39;;;;;;;6.97;2.80;;;5.70;99.90;;;;;;5018320;28;20018;-65
2024/01/07 03:11:06;;;;;;;6.55;2.92;;;5.80;99.90;;;;;;5018759;28;20026;-65
2024/01/07 03:13:32;;;;;;;5.93;2.60;;;5.80;99.90;;;;;;5017843;28;20089;-65
2024/01/07 03:15:57;;;;;;;7.97;3.60;;;5.90;99.90;;;;;;5018117;28;20099;-65
2024/01/07 03:18:23;;;;;;;10.73;3.25;;;5.70;99.90;;;;;;5018116;28;20117;-65
2024/01/07 03:20:48;;;;;;;8.35;3.40;;;5.60;99.90;;;;;;5018682;28;20026;-65
2024/01/07 03:23:14;;;;;;;9.20;3.95;;;5.50;99.90;;;;;;5017978;28;20026;-65
2024/01/07 03:25:39;;;;;;;13.68;5.13;;;5.70;99.90;;;;;;5017574;28;20022;-65
2024/01/07 03:28:05;;;;;;;16.17;5.22;;;5.70;99.90;;;;;;5017677;28;20030;-65
2024/01/07 03:30:31;;;;;;;17.40;6.80;;;5.60;99.90;;;;;;5018958;28;20038;-65
2024/01/07 03:32:56;;;;;;;13.60;5.60;;;5.40;99.90;;;;;;5018277;28;20025;-65
2024/01/07 03:35:24;;;;;;;14.32;5.50;;;5.40;99.90;;;;;;5018618;28;20023;-65
2024/01/07 03:37:49;;;;;;;16.30;5.60;;;5.50;99.90;;;;;;5018351;28;20101;-65
2024/01/07 03:40:15;;;;;;;13.15;5.57;;;5.70;99.90;;;;;;5018477;28;20064;-65
2024/01/07 03:42:41;;;;;;;11.50;5.00;;;5.80;99.90;;;;;;5017245;28;20026;-65
2024/01/07 03:45:06;;;;;;;13.73;6.50;;;5.80;99.90;;;;;;5017201;28;20075;-65
2024/01/07 03:47:32;;;;;;;14.85;4.50;;;5.70;99.90;;;;;;5018309;28;20030;-65
2024/01/07 03:49:57;;;;;;;17.23;6.03;;;5.60;99.90;;;;;;5017301;28;20029;-65
2024/01/07 03:52:24;;;;;;;12.68;5.25;;;5.60;99.90;;;;;;5017009;28;20046;-65
2024/01/07 03:54:49;;;;;;;16.45;5.10;;;5.70;99.90;;;;;;5017325;28;20109;-65
2024/01/07 03:57:15;;;;;;;16.38;6.53;;;5.70;99.90;;;;;;5018489;28;20030;-65
2024/01/07 03:59:40;;;;;;;17.27;5.75;;;5.70;99.90;;;;;;5017732;28;20026;-65
2024/01/07 04:02:06;;;;;;;12.88;5.25;;;5.80;99.90;;;;;;5017761;28;20136;-65
2024/01/07 04:04:32;;;;;;;13.73;5.25;;;5.70;99.90;;;;;;5016489;28;20124;-65
2024/01/07 04:06:57;;;;;;;12.82;5.47;;;5.70;99.90;;;;;;5016977;28;20029;-65
2024/01/07 04:09:23;;;;;;;13.38;4.72;;;5.70;99.90;;;;;;5017268;28;20028;-65
2024/01/07 04:11:49;;;;;;;11.65;5.18;;;5.60;99.90;;;;;;5017085;28;20030;-65
2024/01/07 04:14:15;;;;;;;13.50;5.30;;;5.70;99.90;;;;;;5017576;28;20076;-65
2024/01/07 04:16:41;;;;;;;13.85;5.57;;;5.50;99.90;;;;;;5016732;28;20026;-66
2024/01/07 04:19:07;;;;;;;15.70;5.60;;;5.40;99.90;;;;;;5017582;28;20029;-65
2024/01/07 04:21:32;;;;;;;15.13;5.82;;;5.50;99.90;;;;;;5017565;28;20037;-65
2024/01/07 04:23:58;;;;;;;15.63;5.40;;;5.60;99.90;;;;;;5016670;28;20026;-65
2024/01/07 04:26:23;;;;;;;12.00;5.18;;;5.70;99.90;;;;;;5017584;28;20032;-65
2024/01/07 04:28:49;;;;;;;10.23;5.38;;;5.70;99.90;;;;;;5017511;28;20034;-65
2024/01/07 04:31:15;;;;;;;9.48;4.10;;;5.60;99.90;;;;;;5017293;28;20026;-65
2024/01/07 04:33:40;;;;;;;12.75;5.20;;;5.60;99.90;;;;;;5017384;28;20028;-65
2024/01/07 04:36:06;;;;;;;12.10;5.30;;;5.60;99.90;;;;;;5016541;28;20021;-65
2024/01/07 04:38:32;;;;;;;9.90;5.03;;;5.70;99.90;;;;;;5016539;28;20026;-65
2024/01/07 04:40:58;;;;;;;14.15;5.20;;;5.60;99.90;;;;;;5016748;28;20030;-65
2024/01/07 04:43:23;;;;;;;11.88;5.97;;;5.60;99.90;;;;;;5017554;28;20021;-65
2024/01/07 04:45:49;;;;;;;11.00;5.10;;;5.70;99.90;;;;;;5016333;28;20112;-65
2024/01/07 04:48:14;;;;;;;10.90;5.28;;;5.70;99.90;;;;;;5017318;28;20160;-65
2024/01/07 04:50:41;;;;;;;11.35;5.53;;;5.80;99.90;;;;;;5017089;28;20033;-65
2024/01/07 04:53:08;;;;;;;14.50;6.20;;;5.70;99.90;;;;;;5017152;28;20029;-65
2024/01/07 04:55:33;;;;;;;11.85;5.53;;;5.60;99.90;;;;;;5016359;28;20018;-65
2024/01/07 04:57:59;;;;;;;11.02;5.82;;;5.60;99.90;;;;;;5017164;28;20018;-65
2024/01/07 05:00:25;;;;;;;13.02;6.20;;;5.60;99.90;;;;;;5017123;28;20021;-65
2024/01/07 05:02:50;;;;;;;16.55;6.90;;;5.60;99.90;;;;;;5016016;28;20038;-65
2024/01/07 05:05:16;;;;;;;14.55;6.43;;;5.60;99.90;;;;;;5016998;28;20030;-65
2024/01/07 05:07:41;;;;;;;13.57;6.50;;;5.40;99.90;;;;;;5017653;28;20034;-65
2024/01/07 05:10:07;;;;;;;17.75;6.45;;;5.40;99.90;;;;;;5016207;28;20026;-65
2024/01/07 05:12:33;;;;;;;10.73;5.85;;;5.30;99.90;;;;;;5017033;28;20026;-65
2024/01/07 05:14:59;;;;;;;11.77;6.10;;;5.20;99.90;;;;;;5016152;28;20029;-65
2024/01/07 05:17:25;;;;;;;13.68;6.28;;;5.10;99.90;;;;;;5020320;28;20022;-65
2024/01/07 05:19:50;;;;;;;12.50;5.93;;;5.20;99.90;;;;;;5021112;28;20104;-65
2024/01/07 05:22:16;;;;;;;15.05;6.25;;;5.40;99.90;;;;;;5020120;28;20025;-65
2024/01/07 05:24:41;;;;;;;14.90;6.00;;;5.40;99.90;;;;;;5020777;28;20026;-65
2024/01/07 05:27:08;;;;;;;10.80;5.85;;;5.40;99.90;;;;;;5021302;28;20037;-65
2024/01/07 05:29:34;;;;;;;13.90;6.75;;;5.30;99.90;;;;;;5020769;28;20041;-65
2024/01/07 05:32:00;;;;;;;12.02;6.25;;;5.40;99.90;;;;;;5020047;28;20034;-65
2024/01/07 05:34:26;;;;;;;10.68;5.22;;;5.40;99.90;;;;;;5020625;28;20041;-65
2024/01/07 05:36:52;;;;;;;15.43;6.40;;;5.50;99.90;;;;;;5020524;28;20052;-65
2024/01/07 05:39:17;;;;;;;12.38;5.72;;;5.40;99.90;;;;;;5020682;28;20036;-65
2024/01/07 05:41:43;;;;;;;10.90;5.45;;;5.20;99.90;;;;;;5019766;28;20049;-65
2024/01/07 05:44:09;;;;;;;11.65;5.57;;;5.40;99.90;;;;;;5020538;28;20049;-65
2024/01/07 05:46:39;;;;;;;11.02;5.45;;;5.60;99.90;;;;;;5020751;28;20026;-65
2024/01/07 05:49:05;;;;;;;10.98;5.03;;;5.40;99.90;;;;;;5020701;28;20085;-65
2024/01/07 05:51:31;;;;;;;9.50;4.90;;;5.30;99.90;;;;;;5019271;28;20112;-65
2024/01/07 05:53:56;;;;;;;11.85;4.90;;;5.10;99.90;;;;;;5019466;28;20022;-65
2024/01/07 05:56:22;;;;;;;12.90;5.30;;;5.00;99.90;;;;;;5020246;28;20105;-65
2024/01/07 05:58:47;;;;;;;9.50;4.97;;;4.90;99.90;;;;;;5020092;28;20029;-65
2024/01/07 06:01:21;;;;;;;10.20;4.35;;;4.90;99.90;;;;;;5019415;28;20022;-65
2024/01/07 06:03:47;;;;;;;14.45;5.50;;;5.10;99.90;;;;;;5019216;28;20119;-65
2024/01/07 06:06:14;;;;;;;16.15;5.20;;;5.10;99.90;;;;;;5019523;28;20088;-65
2024/01/07 06:08:41;;;;;;;10.55;4.88;;;4.80;99.90;;;;;;5019925;28;20022;-65
2024/01/07 06:11:07;;;;;;;10.90;5.53;;;5.00;99.90;;;;;;5020074;28;20029;-65
2024/01/07 06:13:32;;;;;;;11.55;5.18;;;5.20;99.90;;;;;;5018908;28;20022;-65
2024/01/07 06:15:58;;;;;;;14.13;5.60;;;5.20;99.90;;;;;;5020209;28;20029;-65
2024/01/07 06:18:23;;;;;;;14.70;6.60;;;5.10;99.90;;;;;;5020441;28;20029;-65
2024/01/07 06:20:49;;;;;;;13.73;6.57;;;4.70;99.90;;;;;;5019721;28;20026;-65
2024/01/07 06:23:14;;;;;;;23.17;8.82;;;4.60;99.90;;;;;;5019456;28;20026;-65
2024/01/07 06:25:40;;;;;;;16.92;8.10;;;4.60;99.90;;;;;;5018868;28;20026;-65
2024/01/07 06:28:06;;;;;;;17.77;7.88;;;4.40;99.90;;;;;;5019251;28;20022;-65
2024/01/07 06:30:31;;;;;;;16.05;6.78;;;4.60;99.90;;;;;;5018876;28;20026;-65
2024/01/07 06:32:57;;;;;;;18.90;7.60;;;4.50;99.90;;;;;;5019714;28;20041;-65
2024/01/07 06:35:22;;;;;;;17.17;7.43;;;4.60;99.90;;;;;;5018905;28;20033;-65
2024/01/07 06:37:48;;;;;;;19.55;8.75;;;4.70;99.90;;;;;;5019448;28;20018;-65
2024/01/07 06:40:14;;;;;;;16.38;7.25;;;4.80;99.90;;;;;;5019344;28;20104;-65
2024/01/07 06:42:40;;;;;;;17.77;7.57;;;4.80;99.90;;;;;;5019588;28;20026;-65
2024/01/07 06:45:06;;;;;;;19.90;7.47;;;4.90;99.90;;;;;;5019609;28;20025;-65
2024/01/07 06:47:32;;;;;;;20.95;7.88;;;5.00;99.90;;;;;;5018274;28;20076;-65
2024/01/07 06:49:57;;;;;;;20.35;7.63;;;4.90;99.90;;;;;;5019294;28;20029;-65
2024/01/07 06:52:23;;;;;;;18.42;8.23;;;5.00;99.90;;;;;;5018179;28;20030;-65
2024/01/07 06:54:49;;;;;;;23.10;8.02;;;5.10;99.90;;;;;;5019075;28;20022;-65
2024/01/07 06:57:14;;;;;;;20.48;8.77;;;5.20;99.90;;;;;;5018374;28;20022;-65
2024/01/07 06:59:40;;;;;;;23.02;9.30;;;5.20;99.90;;;;;;5019519;28;20029;-65
2024/01/07 07:02:05;;;;;;;21.58;9.27;;;5.00;99.90;;;;;;5019038;28;20048;-65
2024/01/07 07:04:31;;;;;;;22.23;9.57;;;4.80;99.90;;;;;;5017961;28;20022;-65
2024/01/07 07:06:57;;;;;;;25.17;10.18;;;4.80;99.90;;;;;;5018090;28;20028;-65
2024/01/07 07:09:23;;;;;;;23.45;9.85;;;4.80;99.90;;;;;;5018953;28;20028;-65
2024/01/07 07:11:48;;;;;;;23.90;9.55;;;4.80;99.90;;;;;;5018619;28;20026;-65
2024/01/07 07:14:14;;;;;;;26.48;10.82;;;4.90;99.90;;;;;;5018809;28;20045;-65
2024/01/07 07:16:39;;;;;;;26.33;10.70;;;5.00;99.90;;;;;;5018964;28;20029;-65
2024/01/07 07:19:05;;;;;;;23.80;9.40;;;5.00;99.90;;;;;;5018682;28;20046;-65
2024/01/07 07:21:31;;;;;;;28.00;10.18;;;4.90;99.90;;;;;;5018572;28;20037;-65
2024/01/07 07:23:56;;;;;;;27.63;10.73;;;4.90;99.90;;;;;;5018629;28;20036;-65
2024/01/07 07:26:22;;;;;;;26.58;11.10;;;5.00;99.90;;;;;;5018812;28;20033;-65
2024/01/07 07:28:48;;;;;;;24.92;9.07;;;5.10;99.90;;;;;;5017585;28;20033;-65
2024/01/07 07:31:13;;;;;;;24.30;8.95;;;4.90;99.90;;;;;;5018467;28;20126;-65
2024/01/07 07:33:40;;;;;;;21.98;9.05;;;4.90;99.90;;;;;;5017609;28;20104;-65
2024/01/07 07:36:05;;;;;;;20.65;9.07;;;4.70;99.90;;;;;;5018644;28;20018;-65
2024/01/07 07:38:32;;;;;;;20.65;9.05;;;4.50;99.90;;;;;;5017419;28;20033;-65
2024/01/07 07:40:58;;;;;;;21.63;8.70;;;4.40;99.90;;;;;;5018766;28;20022;-65
2024/01/07 07:43:24;;;;;;;17.55;7.55;;;4.40;99.90;;;;;;5017284;28;20076;-66
2024/01/07 07:45:50;;;;;;;17.95;7.43;;;4.40;99.90;;;;;;5017260;28;20029;-65
2024/01/07 07:48:16;;;;;;;17.02;6.85;;;4.50;99.90;;;;;;5017285;28;20022;-65
2024/01/07 07:50:42;;;;;;;15.93;6.88;;;4.70;99.90;;;;;;5017131;28;20042;-65
2024/01/07 07:53:08;;;;;;;13.63;7.10;;;4.70;99.90;;;;;;5018301;28;20021;-65
2024/01/07 07:55:33;;;;;;;17.60;6.85;;;4.70;99.90;;;;;;5018059;28;20078;-65
2024/01/07 07:57:59;;;;;;;12.15;6.25;;;4.80;99.90;;;;;;5017941;28;20018;-65
2024/01/07 08:00:24;;;;;;;14.07;5.97;;;4.50;99.90;;;;;;5018259;28;20021;-65
2024/01/07 08:02:50;;;;;;;17.45;7.20;;;4.70;99.90;;;;;;5016771;28;20037;-65
2024/01/07 08:05:16;;;;;;;14.38;6.68;;;4.70;99.90;;;;;;5017867;28;20037;-65
2024/01/07 08:07:42;;;;;;;14.43;6.35;;;4.80;99.90;;;;;;5018150;28;20025;-65
2024/01/07 08:10:08;;;;;;;14.07;6.72;;;4.90;99.90;;;;;;5017902;28;20021;-65
2024/01/07 08:12:33;;;;;;;16.35;7.20;;;4.80;99.90;;;;;;5017179;28;20033;-65
2024/01/07 08:14:59;;;;;;;15.70;7.00;;;4.70;99.90;;;;;;5016898;28;20022;-65
2024/01/07 08:17:24;;;;;;;13.18;5.82;;;4.50;99.90;;;;;;5017805;28;20025;-65
2024/01/07 08:19:50;;;;;;;12.75;6.38;;;4.40;99.90;;;;;;5017697;28;20022;-65
2024/01/07 08:22:16;;;;;;;16.33;6.75;;;4.50;99.90;;;;;;5017674;28;20034;-65
2024/01/07 08:24:41;;;;;;;15.38;6.78;;;4.30;99.90;;;;;;5017814;28;20030;-65
2024/01/07 08:27:08;;;;;;;13.50;6.90;;;4.50;99.90;;;;;;5017685;28;20026;-65
2024/01/07 08:29:33;;;;;;;13.75;6.70;;;4.50;99.90;;;;;;5017772;28;20053;-65
2024/01/07 08:31:59;;;;;;;12.57;6.15;;;4.50;99.90;;;;;;5017379;28;20057;-65
2024/01/07 08:34:24;;;;;;;15.20;6.57;;;4.50;99.90;;;;;;5017670;28;20029;-65
2024/01/07 08:36:50;;;;;;;14.43;6.65;;;4.40;99.90;;;;;;5018048;28;20030;-65
2024/01/07 08:39:16;;;;;;;15.13;6.75;;;4.40;99.90;;;;;;5016585;28;20094;-65
2024/01/07 08:41:41;;;;;;;15.00;6.85;;;4.50;99.90;;;;;;5016291;28;20080;-65
2024/01/07 08:44:08;;;;;;;13.82;6.43;;;4.30;99.90;;;;;;5017435;28;20022;-65
2024/01/07 08:46:34;;;;;;;12.88;6.80;;;4.10;99.90;;;;;;5017084;28;20017;-65
2024/01/07 08:49:00;;;;;;;11.70;6.25;;;4.10;99.90;;;;;;5016285;28;20058;-65
2024/01/07 08:51:25;;;;;;;17.80;8.10;;;4.10;99.90;;;;;;5016029;28;20088;-65
2024/01/07 08:53:51;;;;;;;11.52;5.85;;;4.20;99.90;;;;;;5016244;28;20019;-65
2024/01/07 08:56:16;;;;;;;13.13;5.93;;;4.20;99.90;;;;;;5017339;28;20033;-64
2024/01/07 08:58:42;;;;;;;12.57;5.78;;;4.10;99.90;;;;;;5017394;28;20022;-65
2024/01/07 09:01:08;;;;;;;9.30;4.82;;;4.20;99.90;;;;;;5017187;28;20034;-65
2024/01/07 09:03:33;;;;;;;10.95;5.43;;;4.30;99.90;;;;;;5016226;28;20069;-65
2024/01/07 09:05:59;;;;;;;8.85;4.72;;;4.40;99.90;;;;;;5016291;28;20057;-65
2024/01/07 09:08:24;;;;;;;9.63;5.03;;;4.20;99.90;;;;;;5017553;28;20033;-65
2024/01/07 09:10:50;;;;;;;7.72;4.78;;;4.20;99.90;;;;;;5016206;28;20116;-65
2024/01/07 09:13:16;;;;;;;10.35;4.55;;;4.00;99.90;;;;;;5016653;28;20014;-65
2024/01/07 09:15:41;;;;;;;6.82;4.55;;;4.10;99.90;;;;;;5016338;28;20114;-66
2024/01/07 09:18:07;;;;;;;11.73;5.22;;;4.10;99.90;;;;;;5017011;28;20018;-65
2024/01/07 09:20:33;;;;;;;9.10;5.03;;;4.30;99.90;;;;;;5017258;28;20030;-65
2024/01/07 09:22:59;;;;;;;8.73;4.72;;;4.10;99.90;;;;;;5016907;28;20045;-65
2024/01/07 09:25:26;;;;;;;10.07;5.05;;;4.10;99.90;;;;;;5016934;28;20026;-65
2024/01/07 09:27:51;;;;;;;10.85;4.85;;;4.20;99.90;;;;;;5016851;28;20022;-65
2024/01/07 09:30:17;;;;;;;10.45;5.00;;;3.90;99.90;;;;;;5016843;28;20030;-65
2024/01/07 09:32:43;;;;;;;12.23;5.57;;;3.80;99.90;;;;;;5015902;28;20072;-65
2024/01/07 09:35:09;;;;;;;12.23;5.95;;;4.00;99.90;;;;;;5016380;28;20025;-66
2024/01/07 09:37:35;;;;;;;11.48;6.25;;;3.90;99.90;;;;;;5015935;28;20025;-65
2024/01/07 09:40:01;;;;;;;12.63;4.95;;;4.10;99.90;;;;;;5016726;28;20029;-65
2024/01/07 09:42:26;;;;;;;10.77;5.90;;;4.20;99.90;;;;;;5015894;28;20026;-65
2024/01/07 09:44:52;;;;;;;7.72;5.20;;;4.20;99.90;;;;;;5016704;28;20036;-65
2024/01/07 09:47:18;;;;;;;12.88;5.53;;;4.20;99.90;;;;;;5017150;28;20062;-65
2024/01/07 09:49:44;;;;;;;11.98;5.20;;;3.90;99.90;;;;;;5016111;28;20030;-65
2024/01/07 09:52:11;;;;;;;9.32;5.32;;;3.90;99.90;;;;;;5015788;28;20072;-64
2024/01/07 09:54:38;;;;;;;8.73;5.05;;;3.60;99.90;;;;;;5015848;28;20022;-65
2024/01/07 09:57:07;;;;;;;8.05;5.10;;;3.60;99.90;;;;;;5016575;28;20092;-65
2024/01/07 09:59:37;;;;;;;8.05;4.93;;;3.60;99.90;;;;;;5016554;28;20030;-65
2024/01/07 10:02:03;;;;;;;13.70;5.65;;;3.60;99.90;;;;;;5017521;28;20126;-65
2024/01/07 10:04:30;;;;;;;12.20;5.15;;;3.80;99.90;;;;;;5020174;28;20026;-65
2024/01/07 10:06:56;;;;;;;8.77;4.68;;;3.90;99.90;;;;;;5019987;28;20022;-65
2024/01/07 10:09:29;;;;;;;11.48;5.90;;;3.80;99.90;;;;;;5020432;28;20105;-65
2024/01/07 10:11:54;;;;;;;9.65;4.97;;;3.60;99.90;;;;;;5020328;28;20061;-65
2024/01/07 10:14:22;;;;;;;9.82;5.13;;;3.40;99.90;;;;;;5019626;28;20116;-65
2024/01/07 10:16:50;;;;;;;13.07;6.22;;;3.40;99.90;;;;;;5019957;28;20022;-65
2024/01/07 10:19:23;;;;;;;9.75;5.18;;;3.40;99.90;;;;;;5019759;28;20028;-65
2024/01/07 10:22:03;;;;;;;9.32;4.97;;;3.60;99.90;;;;;;5019944;28;20030;-65
2024/01/07 10:24:37;;;;;;;10.70;5.00;;;3.70;99.90;;;;;;5019758;28;20034;-65
2024/01/07 10:27:03;;;;;;;7.93;4.85;;;3.70;99.90;;;;;;5020043;28;20053;-65
2024/01/07 10:29:29;;;;;;;13.90;5.78;;;3.60;99.90;;;;;;5018787;28;20088;-65
2024/01/07 10:32:02;;;;;;;10.43;5.07;;;3.30;99.90;;;;;;5019226;28;20029;-65
2024/01/07 10:34:30;;;;;;;9.73;4.93;;;3.30;99.90;;;;;;5019952;28;20022;-65
2024/01/07 10:36:59;;;;;;;8.20;4.93;;;3.30;99.90;;;;;;5019528;28;20041;-65
2024/01/07 10:39:25;;;;;;;9.75;5.03;;;3.60;99.90;;;;;;5019368;28;20021;-65
2024/01/07 10:41:56;;;;;;;10.40;4.80;;;3.70;99.90;;;;;;5018412;28;20094;-65
2024/01/07 10:44:22;;;;;;;;;;;3.90;99.90;;;;;;5019014;28;20025;-65
2024/01/07 10:46:48;;;;;;;15.57;5.50;;;3.80;99.90;;;;;;5019400;28;19912;-65
2024/01/07 10:49:23;;;;;;;7.15;4.68;;;3.70;99.90;;;;;;5018830;28;20028;-65
2024/01/07 10:52:08;;;;;;;12.30;5.32;;;3.60;99.90;;;;;;5019073;28;20033;-65
2024/01/07 10:54:35;;;;;;;11.32;5.05;;;3.70;99.90;;;;;;5019116;28;20073;-65
2024/01/07 10:57:15;;;;;;;9.48;5.50;;;3.80;99.90;;;;;;5018172;28;20088;-65
2024/01/07 10:59:43;;;;;;;12.93;4.95;;;3.60;99.90;;;;;;5019177;28;20022;-65
2024/01/07 11:02:10;;;;;;;9.05;4.70;;;3.50;99.90;;;;;;5018140;28;20037;-65
2024/01/07 11:04:43;;;;;;;12.80;4.30;;;3.40;99.90;;;;;;5018102;28;20064;-65
2024/01/07 11:07:23;;;;;;;9.35;4.63;;;3.40;99.90;;;;;;5019249;28;20075;-65
2024/01/07 11:10:03;;;;;;;12.43;4.68;;;3.30;99.90;;;;;;5018984;28;20087;-66
2024/01/07 11:12:30;;;;;;;9.43;4.47;;;3.40;99.90;;;;;;5017966;28;20034;-65
2024/01/07 11:14:56;;;;;;;8.18;4.25;;;3.40;99.90;;;;;;5017424;28;20026;-65
2024/01/07 11:17:37;;;;;;;10.13;4.78;;;3.40;99.90;;;;;;5018797;28;20065;-65
2024/01/07 11:20:05;;;;;;;12.13;4.32;;;3.50;99.90;;;;;;5019135;28;20042;-66
2024/01/07 11:22:30;;;;;;;8.20;4.40;;;3.50;99.90;;;;;;5018248;28;20080;-65
2024/01/07 11:24:57;;;;;;;9.82;3.78;;;3.30;99.90;;;;;;5017795;28;20057;-65
2024/01/07 11:27:24;;;;;;;12.32;5.10;;;3.20;99.90;;;;;;5018477;28;20030;-65
2024/01/07 11:30:07;;;;;;;9.90;4.65;;;3.30;99.90;;;;;;5018181;28;20037;-65
2024/01/07 11:32:34;;;;;;;9.27;4.47;;;3.30;99.90;;;;;;5018550;28;20045;-65
2024/01/07 11:35:00;;;;;;;11.27;4.47;;;3.30;99.90;;;;;;5018400;28;20045;-65
2024/01/07 11:37:25;;;;;;;7.40;4.20;;;3.40;99.90;;;;;;5018394;28;20018;-65
2024/01/07 11:39:55;;;;;;;9.07;5.03;;;3.20;99.90;;;;;;5017936;28;20045;-65
2024/01/07 11:42:22;;;;;;;11.00;5.00;;;3.30;99.90;;;;;;5017517;28;20029;-65
2024/01/07 11:44:49;;;;;;;10.88;4.65;;;3.00;99.90;;;;;;5017838;28;20056;-64
2024/01/07 11:47:19;;;;;;;10.38;4.75;;;2.80;99.90;;;;;;5017510;28;20033;-64
2024/01/07 11:49:45;;;;;;;13.70;5.00;;;2.90;99.90;;;;;;5018089;28;20080;-65
2024/01/07 11:52:11;;;;;;;9.88;5.70;;;2.80;99.90;;;;;;5018240;28;20033;-64
2024/01/07 11:54:40;;;;;;;11.65;5.00;;;2.90;99.90;;;;;;5017228;28;20029;-65
2024/01/07 11:57:06;;;;;;;10.32;4.28;;;3.10;99.90;;;;;;5017107;28;20022;-65
2024/01/07 11:59:35;;;;;;;10.45;4.30;;;3.10;99.90;;;;;;5018124;28;20037;-64
2024/01/07 12:02:01;;;;;;;7.35;3.90;;;3.20;99.90;;;;;;5017215;28;20117;-65
2024/01/07 12:04:28;;;;;;;12.10;4.97;;;3.30;99.90;;;;;;5017440;28;20068;-65
2024/01/07 12:06:53;;;;;;;10.02;4.75;;;3.30;99.90;;;;;;5018289;28;20022;-65
2024/01/07 12:09:19;;;;;;;13.93;5.43;;;3.00;99.90;;;;;;5016818;28;20041;-64
2024/01/07 12:11:45;;;;;;;8.50;4.93;;;2.90;99.90;;;;;;5017666;28;20026;-65
2024/01/07 12:14:11;;;;;;;7.90;4.30;;;2.80;99.90;;;;;;5016805;28;20048;-64
2024/01/07 12:16:37;;;;;;;8.68;3.80;;;2.90;99.90;;;;;;5040786;22;20024;-63
2024/01/07 12:19:03;;;;;;;10.25;4.25;;;2.80;99.90;;;;;;5018302;28;20078;-61
2024/01/07 12:21:29;;;;;;;7.43;3.88;;;3.00;99.90;;;;;;5017662;28;20057;-61
2024/01/07 12:23:56;;;;;;;7.55;4.28;;;3.00;99.90;;;;;;5016687;28;20031;-61
2024/01/07 12:26:26;;;;;;;7.40;3.75;;;2.90;99.90;;;;;;5017155;28;20075;-61
2024/01/07 12:28:59;;;;;;;11.57;3.97;;;2.80;99.90;;;;;;5016821;28;20022;-61
2024/01/07 12:31:26;;;;;;;6.93;4.38;;;2.80;99.90;;;;;;5017421;28;20026;-61
2024/01/07 12:33:53;;;;;;;11.05;3.80;;;2.80;99.90;;;;;;5017504;28;20029;-61
2024/01/07 12:36:23;;;;;;;9.07;4.43;;;2.80;99.90;;;;;;5017732;28;20025;-61
2024/01/07 12:38:49;;;;;;;7.80;3.72;;;2.60;99.90;;;;;;5017241;28;20030;-61
2024/01/07 12:41:15;;;;;;;8.50;3.80;;;2.80;99.90;;;;;;5017493;28;20030;-61
2024/01/07 12:43:40;;;;;;;8.32;3.30;;;2.80;99.90;;;;;;5016727;28;20030;-61
2024/01/07 12:46:06;;;;;;;7.13;3.42;;;2.80;99.90;;;;;;5017365;28;20047;-61